Time;durP1;ratioP1;P1;durP2;ratioP2;P2;SDS_P1;SDS_P2;PMS_P1;PMS_P2;Temp;Humidity;BMP_temperature;BMP_pressure;BME280_temperature;BME280_humidity;BME280_pressure;Samples;Min_cycle;Max_cycle;Signal;HPM_P1;HPM_P2
2021/09/22 00:02:15;;;;;;;5.13;3.83;;;12.40;92.10;;;;;;5096759;28;20366;-77
2021/09/22 00:04:41;;;;;;;6.22;4.30;;;12.30;92.20;;;;;;5095700;28;20078;-77
2021/09/22 00:07:07;;;;;;;5.53;3.78;;;12.30;92.30;;;;;;5096331;28;20047;-76
2021/09/22 00:09:32;;;;;;;5.57;3.97;;;12.30;92.30;;;;;;5084134;28;20044;-77
2021/09/22 00:11:58;;;;;;;7.53;4.22;;;12.30;92.30;;;;;;5074912;28;20032;-77
2021/09/22 00:14:24;;;;;;;6.15;3.92;;;12.40;92.20;;;;;;5074821;28;20111;-76
2021/09/22 00:16:49;;;;;;;6.35;3.72;;;12.40;92.10;;;;;;5095922;28;20469;-77
2021/09/22 00:19:15;;;;;;;5.30;4.03;;;12.30;92.20;;;;;;5096550;28;20043;-76
2021/09/22 00:21:41;;;;;;;6.13;3.88;;;12.30;92.20;;;;;;5095324;28;20381;-77
2021/09/22 00:24:06;;;;;;;6.43;4.22;;;12.40;92.20;;;;;;5095066;28;20028;-77
2021/09/22 00:26:32;;;;;;;5.47;3.95;;;12.30;92.30;;;;;;5094763;28;20111;-77
2021/09/22 00:28:58;;;;;;;7.00;3.88;;;12.30;92.30;;;;;;5094679;28;20032;-77
2021/09/22 00:31:23;;;;;;;5.85;3.78;;;12.30;92.50;;;;;;5096542;28;20055;-77
2021/09/22 00:33:49;;;;;;;5.78;3.75;;;12.30;92.30;;;;;;5095027;28;20047;-78
2021/09/22 00:36:15;;;;;;;6.40;4.30;;;12.30;92.20;;;;;;5096275;28;20040;-77
2021/09/22 00:38:40;;;;;;;6.35;4.05;;;12.30;92.40;;;;;;5095084;28;20435;-76
2021/09/22 00:41:06;;;;;;;7.07;4.10;;;12.30;92.40;;;;;;5094693;28;20024;-77
2021/09/22 00:43:32;;;;;;;6.97;4.10;;;12.20;92.20;;;;;;5096241;28;20036;-77
2021/09/22 00:46:03;;;;;;;6.95;3.90;;;12.20;92.30;;;;;;5094624;28;20453;-77
2021/09/22 00:48:32;;;;;;;5.57;3.85;;;12.10;92.30;;;;;;5082527;28;20033;-77
2021/09/22 00:50:59;;;;;;;5.70;3.95;;;12.20;92.60;;;;;;5074240;28;20053;-77
2021/09/22 00:53:26;;;;;;;7.55;4.50;;;12.20;92.40;;;;;;5074732;28;20032;-77
2021/09/22 00:55:52;;;;;;;6.63;4.03;;;12.20;92.30;;;;;;5074184;28;20063;-78
2021/09/22 00:58:18;;;;;;;5.43;4.05;;;12.20;92.30;;;;;;5074738;28;20033;-76
2021/09/22 01:00:43;;;;;;;6.88;4.13;;;12.10;92.50;;;;;;5074548;28;20035;-76
2021/09/22 01:03:09;;;;;;;7.80;3.75;;;12.10;92.50;;;;;;5073961;28;20120;-77
2021/09/22 01:05:37;;;;;;;5.93;3.75;;;12.00;92.50;;;;;;5082610;28;20095;-76
2021/09/22 01:08:05;;;;;;;5.72;3.60;;;11.90;92.60;;;;;;5093636;28;20138;-77
2021/09/22 01:10:31;;;;;;;6.28;4.22;;;11.90;92.70;;;;;;5096007;28;20027;-77
2021/09/22 01:12:57;;;;;;;7.80;3.92;;;11.90;92.70;;;;;;5095292;28;20024;-77
2021/09/22 01:15:26;;;;;;;8.25;4.32;;;11.90;92.60;;;;;;5094228;28;20115;-77
2021/09/22 01:17:52;;;;;;;7.47;4.00;;;11.90;92.70;;;;;;5085043;28;20103;-77
2021/09/22 01:20:18;;;;;;;9.45;4.70;;;11.90;92.60;;;;;;5073496;28;20108;-76
2021/09/22 01:22:43;;;;;;;4.97;3.78;;;11.90;92.60;;;;;;5075235;28;20365;-76
2021/09/22 01:25:11;;;;;;;7.10;3.75;;;11.90;92.60;;;;;;5074731;28;20099;-76
2021/09/22 01:27:59;;;;;;;7.05;4.20;;;11.80;92.70;;;;;;5093922;28;20115;-77
2021/09/22 01:30:26;;;;;;;8.35;4.22;;;11.80;92.70;;;;;;5094225;28;20036;-76
2021/09/22 01:33:02;;;;;;;6.45;4.07;;;11.70;92.60;;;;;;5093747;28;20108;-78
2021/09/22 01:35:33;;;;;;;6.65;4.85;;;11.70;92.80;;;;;;5095392;28;20020;-76
2021/09/22 01:37:59;;;;;;;6.43;4.70;;;11.70;92.80;;;;;;5093516;28;20544;-77
2021/09/22 01:40:25;;;;;;;8.35;4.22;;;11.70;92.70;;;;;;5093593;28;20066;-77
2021/09/22 01:42:50;;;;;;;5.47;4.18;;;11.60;92.70;;;;;;5092398;28;20480;-77
2021/09/22 01:45:16;;;;;;;7.70;4.82;;;11.60;92.80;;;;;;5094028;28;20473;-76
2021/09/22 01:47:42;;;;;;;7.70;4.72;;;11.50;92.90;;;;;;5076799;28;20094;-77
2021/09/22 01:50:14;;;;;;;9.27;4.85;;;11.50;93.00;;;;;;5073108;28;20020;-77
2021/09/22 01:52:42;;;;;;;9.30;4.97;;;11.50;93.20;;;;;;5073469;28;20070;-77
2021/09/22 01:55:08;;;;;;;7.47;5.00;;;11.40;93.20;;;;;;5072857;28;20031;-77
2021/09/22 01:57:34;;;;;;;8.02;4.72;;;11.40;93.40;;;;;;5073574;28;20047;-76
2021/09/22 02:00:00;;;;;;;7.50;4.43;;;11.40;93.40;;;;;;5072760;28;20477;-77
2021/09/22 02:02:25;;;;;;;9.25;5.05;;;11.40;93.30;;;;;;5090097;28;20071;-76
2021/09/22 02:04:51;;;;;;;6.68;4.22;;;11.40;93.20;;;;;;5073424;28;20074;-76
2021/09/22 02:07:17;;;;;;;7.97;4.90;;;11.40;93.20;;;;;;5073722;28;20037;-77
2021/09/22 02:09:43;;;;;;;9.32;4.22;;;11.40;93.20;;;;;;5072881;28;20040;-77
2021/09/22 02:12:08;;;;;;;7.65;4.57;;;11.40;93.20;;;;;;5073639;28;20047;-77
2021/09/22 02:14:34;;;;;;;6.72;4.30;;;11.30;93.20;;;;;;5089282;28;20056;-76
2021/09/22 02:17:00;;;;;;;7.53;4.93;;;11.20;93.50;;;;;;5086494;28;20028;-77
2021/09/22 02:19:26;;;;;;;6.20;4.30;;;11.20;93.60;;;;;;5092976;28;20028;-76
2021/09/22 02:21:52;;;;;;;7.07;4.80;;;11.30;93.50;;;;;;5093134;28;20032;-76
2021/09/22 02:24:18;;;;;;;7.97;5.10;;;11.30;93.70;;;;;;5092735;28;20425;-77
2021/09/22 02:26:43;;;;;;;7.07;4.43;;;11.30;93.60;;;;;;5093023;28;20476;-76
2021/09/22 02:29:09;;;;;;;8.65;4.82;;;11.30;93.60;;;;;;5091886;28;20232;-77
2021/09/22 02:31:35;;;;;;;8.75;4.72;;;11.30;93.70;;;;;;5092692;28;20024;-76
2021/09/22 02:34:01;;;;;;;8.38;4.88;;;11.30;93.80;;;;;;5092458;28;20506;-76
2021/09/22 02:36:28;;;;;;;10.05;5.10;;;11.30;93.70;;;;;;5093917;28;20479;-76
2021/09/22 02:38:53;;;;;;;6.90;4.40;;;11.30;94.00;;;;;;5092073;28;20047;-77
2021/09/22 02:41:19;;;;;;;8.30;5.20;;;11.30;93.90;;;;;;5092267;28;20028;-77
2021/09/22 02:43:45;;;;;;;8.02;5.13;;;11.30;94.10;;;;;;5093343;28;20032;-76
2021/09/22 02:46:11;;;;;;;9.63;5.05;;;11.20;94.20;;;;;;5092267;28;20173;-77
2021/09/22 02:48:37;;;;;;;7.60;4.70;;;11.20;94.10;;;;;;5072435;28;20028;-76
2021/09/22 02:51:03;;;;;;;6.95;4.97;;;11.10;94.10;;;;;;5071604;28;20127;-77
2021/09/22 02:53:30;;;;;;;7.20;4.80;;;11.00;94.30;;;;;;5072242;28;20108;-77
2021/09/22 02:55:56;;;;;;;9.00;5.15;;;11.00;94.80;;;;;;5071828;28;20056;-77
2021/09/22 02:58:22;;;;;;;7.85;5.43;;;11.10;94.60;;;;;;5071870;28;20048;-76
2021/09/22 03:00:48;;;;;;;11.07;5.00;;;11.10;94.40;;;;;;5072384;28;20123;-77
2021/09/22 03:03:17;;;;;;;8.18;4.90;;;11.10;94.30;;;;;;5071759;28;20024;-77
2021/09/22 03:05:43;;;;;;;8.43;5.32;;;11.00;94.20;;;;;;5072700;28;20120;-77
2021/09/22 03:08:09;;;;;;;7.38;4.97;;;11.00;94.30;;;;;;5071422;28;20058;-76
2021/09/22 03:10:35;;;;;;;7.97;4.65;;;11.00;94.40;;;;;;5072751;28;20028;-76
2021/09/22 03:13:01;;;;;;;7.60;4.57;;;11.00;94.40;;;;;;5105379;28;20385;-78
2021/09/22 03:15:27;;;;;;;8.02;5.10;;;11.00;94.30;;;;;;5073238;28;20024;-77
2021/09/22 03:17:52;;;;;;;9.10;4.50;;;11.00;94.20;;;;;;5109191;28;20024;-75
2021/09/22 03:20:18;;;;;;;7.20;4.55;;;11.00;94.30;;;;;;5091762;28;20105;-76
2021/09/22 03:22:44;;;;;;;8.43;4.55;;;11.10;94.20;;;;;;5092122;28;20050;-76
2021/09/22 03:25:10;;;;;;;6.35;4.85;;;11.00;94.10;;;;;;5092183;28;20028;-76
2021/09/22 03:27:36;;;;;;;7.53;4.75;;;11.00;94.00;;;;;;5093300;28;20121;-76
2021/09/22 03:30:07;;;;;;;9.45;4.93;;;10.90;94.00;;;;;;5071660;28;20124;-78
2021/09/22 03:32:33;;;;;;;7.45;4.55;;;11.00;94.20;;;;;;5071970;28;20031;-77
2021/09/22 03:34:59;;;;;;;7.72;4.95;;;11.00;94.20;;;;;;5087804;28;20178;-78
2021/09/22 03:37:24;;;;;;;8.65;4.93;;;11.00;94.10;;;;;;5070864;28;20485;-77
2021/09/22 03:39:50;;;;;;;7.47;4.68;;;10.90;94.00;;;;;;5071379;28;20040;-77
2021/09/22 03:42:16;;;;;;;8.88;4.82;;;10.90;94.00;;;;;;5070101;28;20020;-76
2021/09/22 03:44:41;;;;;;;9.52;4.85;;;10.90;94.10;;;;;;5071247;28;20476;-76
2021/09/22 03:47:07;;;;;;;11.18;4.78;;;10.70;94.10;;;;;;5070601;28;20028;-77
2021/09/22 03:49:33;;;;;;;7.13;4.97;;;10.50;94.40;;;;;;5084034;28;20039;-77
2021/09/22 03:51:58;;;;;;;8.15;4.88;;;10.50;94.60;;;;;;5092604;28;20028;-77
2021/09/22 03:54:24;;;;;;;7.90;4.60;;;10.50;94.60;;;;;;5090279;28;20476;-77
2021/09/22 03:56:49;;;;;;;8.10;4.60;;;10.50;94.50;;;;;;5092395;28;20512;-76
2021/09/22 03:59:15;;;;;;;6.80;4.72;;;10.50;94.60;;;;;;5088784;28;20035;-77
2021/09/22 04:01:41;;;;;;;7.80;5.30;;;10.60;94.40;;;;;;5091361;28;20024;-77
2021/09/22 04:04:07;;;;;;;7.50;5.35;;;10.50;94.40;;;;;;5091273;28;20122;-77
2021/09/22 04:06:33;;;;;;;7.80;4.95;;;10.40;94.60;;;;;;5125810;28;20085;-76
2021/09/22 04:08:59;;;;;;;7.47;4.93;;;10.50;94.70;;;;;;5082035;28;20032;-76
2021/09/22 04:11:25;;;;;;;10.05;5.32;;;10.50;94.60;;;;;;5072046;28;20354;-77
2021/09/22 04:13:50;;;;;;;10.55;5.43;;;10.50;94.50;;;;;;5088262;28;20040;-76
2021/09/22 04:16:16;;;;;;;8.32;4.88;;;10.60;94.40;;;;;;5070864;28;20020;-77
2021/09/22 04:18:42;;;;;;;8.38;5.38;;;10.50;94.80;;;;;;5071169;28;20494;-77
2021/09/22 04:21:07;;;;;;;8.48;5.07;;;10.60;94.40;;;;;;5070909;28;20025;-76
2021/09/22 04:23:33;;;;;;;11.25;5.35;;;10.60;94.40;;;;;;5071423;28;20454;-77
2021/09/22 04:25:59;;;;;;;8.57;5.22;;;10.60;94.40;;;;;;5076515;28;20460;-77
2021/09/22 04:28:24;;;;;;;8.90;5.35;;;10.60;94.40;;;;;;5091271;28;20020;-76
2021/09/22 04:30:50;;;;;;;8.02;5.07;;;10.60;94.30;;;;;;5091415;28;20027;-76
2021/09/22 04:33:16;;;;;;;7.68;4.68;;;10.50;94.20;;;;;;5090683;28;20089;-77
2021/09/22 04:35:41;;;;;;;7.57;5.28;;;10.50;94.20;;;;;;5091479;28;20021;-77
2021/09/22 04:38:08;;;;;;;8.25;4.68;;;10.50;94.30;;;;;;5091627;28;20036;-77
2021/09/22 04:40:34;;;;;;;9.02;5.60;;;10.40;94.40;;;;;;5092801;28;20024;-76
2021/09/22 04:43:00;;;;;;;9.43;5.10;;;10.40;94.50;;;;;;5094853;28;20024;-76
2021/09/22 04:45:26;;;;;;;8.25;5.13;;;10.40;94.40;;;;;;5094111;28;20051;-76
2021/09/22 04:47:53;;;;;;;10.65;5.15;;;10.40;94.40;;;;;;5094569;28;20118;-76
2021/09/22 04:50:20;;;;;;;10.23;5.40;;;10.40;94.40;;;;;;5094236;28;20028;-76
2021/09/22 04:52:46;;;;;;;8.63;4.55;;;10.40;94.50;;;;;;5094903;28;20045;-76
2021/09/22 04:55:12;;;;;;;7.97;5.05;;;10.30;94.50;;;;;;5094007;28;20056;-77
2021/09/22 04:57:39;;;;;;;8.73;4.82;;;10.30;94.60;;;;;;5095037;28;20035;-75
2021/09/22 05:00:06;;;;;;;9.65;5.60;;;10.20;94.90;;;;;;5094590;28;20101;-77
2021/09/22 05:02:31;;;;;;;7.95;5.28;;;10.10;95.00;;;;;;5094169;28;20024;-77
2021/09/22 05:04:57;;;;;;;9.05;4.75;;;10.20;95.10;;;;;;5128468;27;20031;-76
2021/09/22 05:07:22;;;;;;;7.30;4.93;;;10.30;94.90;;;;;;5093495;28;20036;-76
2021/09/22 05:09:48;;;;;;;6.57;4.68;;;10.30;94.80;;;;;;5094751;28;20028;-76
2021/09/22 05:12:14;;;;;;;8.90;4.72;;;10.30;94.80;;;;;;5127648;27;20074;-77
2021/09/22 05:14:39;;;;;;;6.47;4.50;;;10.30;94.80;;;;;;5094342;28;20473;-76
2021/09/22 05:17:05;;;;;;;8.15;4.82;;;10.30;94.80;;;;;;5094166;28;20020;-77
2021/09/22 05:19:31;;;;;;;7.95;5.47;;;10.30;94.70;;;;;;5094091;28;20064;-76
2021/09/22 05:21:57;;;;;;;8.75;5.78;;;10.40;94.70;;;;;;5095519;28;20424;-76
2021/09/22 05:24:23;;;;;;;8.45;5.38;;;10.40;94.50;;;;;;5093541;28;20469;-76
2021/09/22 05:26:48;;;;;;;8.15;4.68;;;10.40;94.50;;;;;;5095441;28;20346;-76
2021/09/22 05:29:14;;;;;;;6.43;4.80;;;10.40;94.50;;;;;;5091983;28;20473;-77
2021/09/22 05:31:40;;;;;;;7.93;5.30;;;10.40;94.60;;;;;;5091225;28;20455;-76
2021/09/22 05:34:06;;;;;;;7.43;4.63;;;10.40;94.60;;;;;;5078387;28;20521;-79
2021/09/22 05:36:32;;;;;;;7.80;4.97;;;10.40;94.50;;;;;;5077169;28;20112;-77
2021/09/22 05:38:57;;;;;;;8.35;5.45;;;10.40;94.50;;;;;;5073792;28;20154;-76
2021/09/22 05:41:23;;;;;;;8.05;5.03;;;10.40;94.60;;;;;;5074258;28;20469;-77
2021/09/22 05:43:48;;;;;;;8.45;5.25;;;10.40;94.60;;;;;;5091254;28;20031;-76
2021/09/22 05:46:14;;;;;;;8.88;5.70;;;10.40;94.60;;;;;;5075437;28;20039;-77
2021/09/22 05:48:40;;;;;;;10.13;5.50;;;10.40;94.60;;;;;;5073292;28;20024;-77
2021/09/22 05:51:05;;;;;;;10.18;5.82;;;10.30;94.50;;;;;;5072828;28;20025;-77
2021/09/22 05:53:31;;;;;;;9.60;5.72;;;10.30;94.40;;;;;;5073745;28;20024;-77
2021/09/22 05:55:57;;;;;;;9.98;5.80;;;10.30;94.40;;;;;;5072950;28;20088;-76
2021/09/22 05:58:24;;;;;;;8.23;5.47;;;10.30;94.50;;;;;;5073738;28;20060;-77
2021/09/22 06:00:52;;;;;;;11.02;5.93;;;10.40;94.60;;;;;;5074550;28;20531;-75
2021/09/22 06:03:18;;;;;;;9.50;5.55;;;10.40;94.20;;;;;;5072787;28;20115;-76
2021/09/22 06:05:43;;;;;;;9.23;5.18;;;10.40;94.10;;;;;;5085580;28;20452;-77
2021/09/22 06:08:09;;;;;;;8.43;5.43;;;10.40;94.10;;;;;;5094018;28;20064;-78
2021/09/22 06:10:36;;;;;;;8.60;5.53;;;10.40;94.10;;;;;;5092587;28;20050;-76
2021/09/22 06:13:04;;;;;;;9.27;5.57;;;10.40;94.20;;;;;;5093332;28;20043;-77
2021/09/22 06:15:29;;;;;;;8.25;5.65;;;10.50;94.20;;;;;;5090505;28;20280;-77
2021/09/22 06:17:56;;;;;;;8.60;5.57;;;10.40;94.20;;;;;;5093261;28;20460;-77
2021/09/22 06:20:21;;;;;;;8.55;5.72;;;10.50;94.40;;;;;;5092760;28;20027;-77
2021/09/22 06:22:47;;;;;;;9.38;5.38;;;10.60;94.20;;;;;;5093112;28;20330;-77
2021/09/22 06:25:14;;;;;;;10.10;5.35;;;10.60;94.20;;;;;;5092254;28;20513;-77
2021/09/22 06:27:40;;;;;;;11.77;5.47;;;10.70;94.20;;;;;;5072810;28;20468;-76
2021/09/22 06:30:07;;;;;;;8.75;5.53;;;10.70;94.10;;;;;;5072670;28;20491;-77
2021/09/22 06:32:33;;;;;;;8.50;5.90;;;10.70;94.10;;;;;;5072312;28;20032;-77
2021/09/22 06:35:01;;;;;;;9.90;5.50;;;10.80;94.20;;;;;;5072843;28;20143;-77
2021/09/22 06:37:26;;;;;;;8.43;5.65;;;10.80;94.20;;;;;;5085252;28;20040;-76
2021/09/22 06:39:52;;;;;;;12.98;5.90;;;10.80;94.20;;;;;;5093881;28;20377;-76
2021/09/22 06:42:18;;;;;;;9.38;5.97;;;10.90;94.20;;;;;;5093476;28;20052;-77
2021/09/22 06:44:43;;;;;;;11.90;6.13;;;10.90;94.20;;;;;;5092714;28;20027;-76
2021/09/22 06:47:09;;;;;;;9.95;6.18;;;11.00;94.30;;;;;;5094849;28;20108;-74
2021/09/22 06:49:35;;;;;;;8.90;5.55;;;11.00;94.10;;;;;;5113258;28;20063;-75
2021/09/22 06:52:00;;;;;;;12.65;6.18;;;11.00;94.10;;;;;;5099419;28;20105;-75
2021/09/22 06:54:26;;;;;;;11.15;6.13;;;11.00;94.00;;;;;;5092121;28;20097;-77
2021/09/22 06:56:52;;;;;;;10.43;6.78;;;11.10;94.10;;;;;;5092002;28;20449;-76
2021/09/22 06:59:18;;;;;;;11.27;6.72;;;11.20;94.10;;;;;;5093192;28;20032;-76
2021/09/22 07:01:44;;;;;;;10.07;5.55;;;11.30;94.20;;;;;;5129380;27;20142;-74
2021/09/22 07:04:11;;;;;;;10.93;6.13;;;11.30;94.10;;;;;;5091681;28;20024;-76
2021/09/22 07:06:37;;;;;;;10.02;5.90;;;11.30;94.20;;;;;;5091585;28;20027;-76
2021/09/22 07:09:02;;;;;;;15.20;6.47;;;11.40;94.10;;;;;;5091875;28;20028;-76
2021/09/22 07:11:28;;;;;;;10.23;6.28;;;11.40;94.10;;;;;;5090537;28;20038;-76
2021/09/22 07:13:54;;;;;;;11.07;6.82;;;11.40;94.10;;;;;;5091765;28;20483;-76
2021/09/22 07:16:20;;;;;;;12.18;7.25;;;11.30;94.10;;;;;;5091234;28;20024;-76
2021/09/22 07:18:46;;;;;;;13.10;7.07;;;11.40;94.30;;;;;;5091733;28;20487;-76
2021/09/22 07:21:14;;;;;;;12.57;7.43;;;11.40;94.20;;;;;;5091184;28;20020;-77
2021/09/22 07:23:42;;;;;;;11.90;6.50;;;11.40;94.10;;;;;;5092865;28;20028;-76
2021/09/22 07:26:08;;;;;;;11.60;7.25;;;11.50;94.00;;;;;;5091671;28;20031;-76
2021/09/22 07:28:35;;;;;;;12.88;7.35;;;11.50;94.00;;;;;;5091697;28;20582;-76
2021/09/22 07:31:02;;;;;;;11.48;6.88;;;11.50;94.00;;;;;;5092420;28;20023;-76
2021/09/22 07:33:28;;;;;;;10.38;6.88;;;11.50;94.00;;;;;;5091825;28;20023;-75
2021/09/22 07:35:54;;;;;;;12.48;6.50;;;11.60;94.00;;;;;;5091551;28;20074;-76
2021/09/22 07:38:20;;;;;;;10.88;7.05;;;11.60;93.90;;;;;;5091773;28;20036;-74
2021/09/22 07:40:50;;;;;;;11.80;6.93;;;11.60;93.90;;;;;;5091916;28;20021;-75
2021/09/22 07:43:15;;;;;;;13.85;6.95;;;11.70;94.10;;;;;;5091788;28;20024;-75
2021/09/22 07:45:42;;;;;;;11.60;7.05;;;11.70;94.10;;;;;;5091198;28;20024;-76
2021/09/22 07:48:07;;;;;;;10.68;6.38;;;11.80;94.00;;;;;;5092328;28;20032;-77
2021/09/22 07:50:34;;;;;;;10.13;6.38;;;11.80;93.90;;;;;;5090942;28;20047;-77
2021/09/22 07:52:59;;;;;;;12.95;7.07;;;11.80;93.90;;;;;;5092364;28;20032;-76
2021/09/22 07:55:25;;;;;;;10.68;7.10;;;11.90;93.90;;;;;;5091822;28;20040;-77
2021/09/22 07:57:55;;;;;;;12.38;7.07;;;11.90;93.90;;;;;;5091270;28;20054;-76
2021/09/22 08:00:22;;;;;;;12.57;7.45;;;12.00;93.90;;;;;;5090668;28;20044;-77
2021/09/22 08:02:49;;;;;;;10.48;6.78;;;12.00;93.90;;;;;;5091900;28;20078;-77
2021/09/22 08:05:15;;;;;;;12.75;7.80;;;12.10;93.70;;;;;;5091930;28;20089;-76
2021/09/22 08:07:43;;;;;;;12.07;6.70;;;12.20;93.70;;;;;;5091113;28;20024;-76
2021/09/22 08:10:09;;;;;;;11.93;6.85;;;12.20;93.70;;;;;;5090406;28;20035;-76
2021/09/22 08:12:35;;;;;;;12.73;7.63;;;12.20;93.80;;;;;;5089596;28;20075;-77
2021/09/22 08:15:00;;;;;;;12.05;6.70;;;12.30;93.70;;;;;;5091868;28;20016;-76
2021/09/22 08:17:28;;;;;;;11.18;7.32;;;12.40;93.70;;;;;;5094535;28;20022;-76
2021/09/22 08:19:53;;;;;;;11.82;7.05;;;12.40;93.60;;;;;;5094942;28;20033;-76
2021/09/22 08:22:19;;;;;;;15.15;8.23;;;12.40;93.70;;;;;;5081159;28;20028;-77
2021/09/22 08:24:46;;;;;;;12.82;7.15;;;12.50;93.80;;;;;;5075162;28;20426;-76
2021/09/22 08:27:12;;;;;;;13.35;7.30;;;12.50;93.80;;;;;;5074861;28;20025;-77
2021/09/22 08:29:39;;;;;;;13.75;7.28;;;12.50;93.60;;;;;;5075225;28;20047;-77
2021/09/22 08:32:05;;;;;;;13.68;7.88;;;12.60;93.80;;;;;;5096311;28;20031;-76
2021/09/22 08:34:31;;;;;;;11.13;6.95;;;12.60;93.50;;;;;;5094326;28;20024;-77
2021/09/22 08:36:57;;;;;;;15.43;7.30;;;12.70;93.50;;;;;;5095028;28;20032;-77
2021/09/22 08:39:23;;;;;;;11.88;6.95;;;12.70;93.50;;;;;;5148886;27;20074;-77
2021/09/22 08:41:49;;;;;;;13.02;7.30;;;12.80;93.70;;;;;;5115384;28;20422;-77
2021/09/22 08:44:19;;;;;;;13.82;7.10;;;12.90;93.50;;;;;;5094938;28;20028;-77
2021/09/22 08:46:45;;;;;;;11.85;6.95;;;12.90;93.30;;;;;;5109270;28;20070;-76
2021/09/22 08:49:12;;;;;;;11.98;6.70;;;13.00;93.30;;;;;;5104891;28;20032;-77
2021/09/22 08:51:39;;;;;;;11.18;6.95;;;13.10;93.20;;;;;;5103666;28;20449;-77
2021/09/22 08:54:05;;;;;;;11.38;7.28;;;13.10;93.20;;;;;;5102360;28;20106;-77
2021/09/22 08:56:31;;;;;;;10.77;6.60;;;13.20;92.90;;;;;;5113160;28;20134;-77
2021/09/22 08:58:57;;;;;;;11.02;6.57;;;13.30;92.70;;;;;;5111849;28;20118;-76
2021/09/22 09:01:25;;;;;;;10.57;6.30;;;13.30;92.90;;;;;;5129232;27;20049;-77
2021/09/22 09:03:52;;;;;;;10.50;6.10;;;13.50;92.60;;;;;;5085166;28;20028;-76
2021/09/22 09:06:26;;;;;;;9.70;6.05;;;13.60;91.80;;;;;;5094461;28;20077;-77
2021/09/22 09:08:55;;;;;;;11.45;6.63;;;13.70;92.00;;;;;;5090419;28;20028;-77
2021/09/22 09:11:35;;;;;;;9.68;6.40;;;13.80;92.00;;;;;;5094749;28;20146;-77
2021/09/22 09:14:04;;;;;;;10.23;6.57;;;13.80;91.70;;;;;;5094517;28;20031;-77
2021/09/22 09:16:40;;;;;;;10.60;6.47;;;13.90;91.70;;;;;;5097423;28;20020;-77
2021/09/22 09:19:18;;;;;;;10.48;6.13;;;13.90;91.00;;;;;;5093423;28;20073;-77
2021/09/22 09:22:05;;;;;;;9.45;6.40;;;14.00;90.90;;;;;;5113302;28;20020;-77
2021/09/22 09:24:51;;;;;;;8.80;6.03;;;14.00;90.70;;;;;;5112555;28;20037;-77
2021/09/22 09:27:19;;;;;;;9.70;5.82;;;14.10;91.00;;;;;;5089864;28;20115;-79
2021/09/22 09:29:49;;;;;;;8.75;5.43;;;14.10;91.60;;;;;;5093177;28;20545;-77
2021/09/22 09:32:21;;;;;;;8.05;5.72;;;14.20;91.20;;;;;;5099234;28;20020;-77
2021/09/22 09:35:06;;;;;;;7.70;5.18;;;14.30;90.20;;;;;;5117678;27;20056;-77
2021/09/22 09:37:34;;;;;;;6.85;5.00;;;14.30;90.30;;;;;;5104927;28;20100;-77
2021/09/22 09:40:38;;;;;;;8.32;5.40;;;14.50;90.10;;;;;;5094515;28;20036;-77
2021/09/22 09:43:06;;;;;;;7.72;5.40;;;14.60;88.50;;;;;;5055562;28;20052;-75
2021/09/22 09:45:39;;;;;;;7.65;4.80;;;14.70;87.10;;;;;;5043504;28;20047;-76
2021/09/22 09:48:17;;;;;;;8.68;4.80;;;14.70;87.10;;;;;;5041654;28;20497;-76
2021/09/22 09:50:44;;;;;;;7.97;5.15;;;14.70;87.00;;;;;;5051299;28;20029;-77
2021/09/22 09:53:21;;;;;;;6.70;4.70;;;14.80;87.00;;;;;;5051967;28;20025;-76
2021/09/22 09:55:47;;;;;;;7.68;4.70;;;14.90;87.50;;;;;;5034495;28;20095;-76
2021/09/22 09:58:12;;;;;;;5.68;4.40;;;15.00;87.00;;;;;;5043640;28;20417;-77
2021/09/22 10:00:38;;;;;;;6.50;4.93;;;15.10;87.00;;;;;;5035605;28;20492;-77
2021/09/22 10:03:19;;;;;;;5.53;4.68;;;15.10;86.90;;;;;;5039544;28;20502;-76
2021/09/22 10:05:49;;;;;;;8.15;4.90;;;15.30;86.40;;;;;;5049079;28;20021;-77
2021/09/22 10:08:17;;;;;;;5.43;4.43;;;15.40;86.70;;;;;;5051845;28;20508;-77
2021/09/22 10:10:46;;;;;;;6.57;4.75;;;15.40;87.00;;;;;;5037066;28;20052;-77
2021/09/22 10:13:13;;;;;;;11.88;5.13;;;15.40;86.80;;;;;;5042950;28;20086;-77
2021/09/22 10:15:41;;;;;;;8.85;4.55;;;15.50;86.40;;;;;;5097143;28;20099;-77
2021/09/22 10:18:09;;;;;;;7.55;4.88;;;15.50;86.00;;;;;;5094258;28;20533;-77
2021/09/22 10:20:37;;;;;;;5.45;4.50;;;15.50;85.10;;;;;;5092418;28;20024;-76
2021/09/22 10:23:04;;;;;;;6.93;4.15;;;15.60;85.50;;;;;;5100384;28;20032;-76
2021/09/22 10:25:30;;;;;;;7.30;4.20;;;15.60;85.40;;;;;;5091983;28;20065;-77
2021/09/22 10:27:56;;;;;;;6.53;4.63;;;15.60;84.50;;;;;;5093492;28;20023;-76
2021/09/22 10:30:42;;;;;;;5.75;4.00;;;15.60;84.20;;;;;;5091958;28;20536;-79
2021/09/22 10:33:29;;;;;;;6.95;3.60;;;15.60;84.60;;;;;;5092148;28;20017;-77
2021/09/22 10:36:00;;;;;;;3.25;2.67;;;15.70;84.90;;;;;;5092685;28;20028;-77
2021/09/22 10:38:28;;;;;;;2.88;2.30;;;15.80;83.40;;;;;;5092362;28;20055;-76
2021/09/22 10:41:01;;;;;;;5.00;2.30;;;16.00;84.10;;;;;;5092542;28;20384;-76
2021/09/22 10:43:30;;;;;;;3.45;2.47;;;16.10;83.40;;;;;;5087753;28;20055;-76
2021/09/22 10:46:11;;;;;;;4.00;2.40;;;16.20;82.80;;;;;;5091897;28;20024;-76
2021/09/22 10:48:40;;;;;;;3.63;2.20;;;16.30;82.40;;;;;;5091283;28;20138;-76
2021/09/22 10:51:09;;;;;;;3.75;2.30;;;16.40;82.40;;;;;;5091633;28;20024;-75
2021/09/22 10:53:41;;;;;;;3.67;2.50;;;16.40;82.30;;;;;;5104449;28;20031;-75
2021/09/22 10:56:26;;;;;;;3.65;2.40;;;16.40;82.20;;;;;;5085170;28;20055;-75
2021/09/22 10:58:54;;;;;;;4.32;2.50;;;16.50;81.20;;;;;;5091120;28;20043;-75
2021/09/22 11:01:31;;;;;;;3.38;2.50;;;16.60;81.10;;;;;;5101636;28;20032;-75
2021/09/22 11:03:59;;;;;;;4.82;2.42;;;16.70;79.80;;;;;;5135399;27;20069;-76
2021/09/22 11:06:49;;;;;;;3.13;2.40;;;16.80;80.30;;;;;;5083645;28;20095;-78
2021/09/22 11:09:18;;;;;;;4.93;2.40;;;16.90;80.60;;;;;;5091761;28;20020;-75
2021/09/22 11:11:56;;;;;;;3.58;2.15;;;16.90;81.40;;;;;;5091860;28;20032;-75
2021/09/22 11:14:30;;;;;;;3.17;2.50;;;17.00;79.80;;;;;;5092872;28;20020;-78
2021/09/22 11:17:02;;;;;;;3.53;2.38;;;17.00;80.60;;;;;;5091865;28;20085;-77
2021/09/22 11:19:27;;;;;;;;;;;17.20;81.00;;;;;;5091655;28;20111;-76
2021/09/22 11:21:54;;;;;;;4.82;2.33;;;17.30;79.90;;;;;;5090996;28;19916;-76
2021/09/22 11:24:23;;;;;;;3.60;2.70;;;17.30;79.30;;;;;;5089949;28;20024;-77
2021/09/22 11:27:11;;;;;;;3.28;2.13;;;17.30;79.40;;;;;;5091362;28;20023;-76
2021/09/22 11:29:39;;;;;;;3.15;2.17;;;17.30;78.00;;;;;;5096736;28;20024;-76
2021/09/22 11:32:30;;;;;;;3.97;2.28;;;17.30;80.50;;;;;;5072959;28;20032;-75
2021/09/22 11:34:59;;;;;;;4.53;2.15;;;17.50;79.60;;;;;;5073060;28;20031;-76
2021/09/22 11:37:37;;;;;;;5.15;2.30;;;17.60;78.50;;;;;;5081035;28;20051;-76
2021/09/22 11:40:10;;;;;;;3.45;2.33;;;17.80;78.70;;;;;;5092712;28;20055;-75
2021/09/22 11:42:55;;;;;;;4.57;1.95;;;17.90;79.10;;;;;;5092349;28;20024;-75
2021/09/22 11:45:26;;;;;;;2.03;1.77;;;17.90;77.80;;;;;;5091678;28;20020;-79
2021/09/22 11:47:52;;;;;;;3.38;2.03;;;17.90;75.50;;;;;;5091886;28;20028;-75
2021/09/22 11:50:35;;;;;;;3.28;1.88;;;17.90;74.90;;;;;;5092626;28;20054;-76
2021/09/22 11:53:01;;;;;;;2.90;2.00;;;18.00;74.70;;;;;;5096138;28;20115;-76
2021/09/22 11:55:28;;;;;;;3.20;2.15;;;18.20;74.10;;;;;;5096644;28;20070;-76
2021/09/22 11:57:53;;;;;;;2.00;1.90;;;18.30;74.80;;;;;;5095760;28;20034;-76
2021/09/22 12:00:24;;;;;;;2.58;1.88;;;18.40;74.10;;;;;;5096718;28;20032;-75
2021/09/22 12:02:51;;;;;;;4.07;1.90;;;18.60;73.80;;;;;;5095706;28;20024;-75
2021/09/22 12:05:18;;;;;;;4.63;2.00;;;18.80;74.30;;;;;;5095702;28;20021;-76
2021/09/22 12:07:45;;;;;;;3.45;1.75;;;18.80;73.20;;;;;;5095194;28;20032;-75
2021/09/22 12:10:12;;;;;;;3.58;1.90;;;18.90;72.60;;;;;;5095542;28;20028;-75
2021/09/22 12:12:38;;;;;;;2.10;1.90;;;19.00;72.60;;;;;;5095058;28;20062;-75
2021/09/22 12:15:06;;;;;;;5.03;2.42;;;19.00;72.30;;;;;;5095590;28;20020;-75
2021/09/22 12:17:38;;;;;;;5.57;1.70;;;19.10;72.40;;;;;;5094935;28;20114;-76
2021/09/22 12:20:05;;;;;;;;;;;19.30;70.00;;;;;;5095818;28;20135;-75
2021/09/22 12:22:33;;;;;;;4.70;1.90;;;19.40;68.60;;;;;;5094271;28;19967;-77
2021/09/22 12:25:00;;;;;;;1.73;1.50;;;19.60;69.30;;;;;;5096560;28;20036;-75
2021/09/22 12:27:27;;;;;;;1.75;1.23;;;19.80;69.80;;;;;;5094495;28;20028;-76
2021/09/22 12:30:14;;;;;;;3.42;1.70;;;20.00;67.40;;;;;;5095630;28;20066;-75
2021/09/22 12:32:56;;;;;;;4.05;1.50;;;20.20;67.00;;;;;;5094766;28;20180;-76
2021/09/22 12:35:27;;;;;;;1.55;1.02;;;20.20;65.40;;;;;;5093824;28;20081;-80
2021/09/22 12:37:55;;;;;;;3.08;1.58;;;20.40;66.10;;;;;;5095245;28;20028;-75
2021/09/22 12:40:27;;;;;;;3.42;1.33;;;20.60;65.40;;;;;;5097971;28;20496;-76
2021/09/22 12:42:53;;;;;;;2.70;1.17;;;20.60;64.70;;;;;;5097655;28;20036;-75
2021/09/22 12:45:30;;;;;;;1.88;1.30;;;20.70;63.90;;;;;;5097154;28;20037;-76
2021/09/22 12:47:59;;;;;;;3.72;1.42;;;20.70;61.90;;;;;;5124657;27;20028;-76
2021/09/22 12:50:30;;;;;;;3.03;1.23;;;20.80;61.60;;;;;;5094561;28;20530;-77